Nome, Alaska
Current Conditions -  °F | °C
As of 12:53 AM on Saturday 22 Nov 2014 (Local Time) from PAOM Reporting Station
Scattered Clouds Scattered Clouds  
Wind Chill: 14°   Ceiling: Unl
Heat Index: 25°   Visibility: 10mi
Dew Point: 13°   Wind: 13mph
Humidity: 60%   Direction: 50°NE
Pressure: 29.2"   Gusts: NA
Location:  64.5°N, 165.41°W
Report Text: PAOM 220953Z 05011KT 10SM SCT200 M04/M11 A2920 RMK SLP890 T10391106 VIA AUTODIAL
Loading
Personal Weather Stations






























Interactive Weather Map New forecast layout! Learn more

10-Day Weather Forecast

Advertisements
Track Severe Weather on mobile